sensor_id;sensor_type;location;lat;lon;timestamp;temperature;humidity
35277;DHT22;21401;50.878;8.050;2022-07-31T00:01:53;17.70;99.90
35277;DHT22;21401;50.878;8.050;2022-07-31T00:04:22;17.80;99.90
35277;DHT22;21401;50.878;8.050;2022-07-31T00:06:52;18.10;99.90
35277;DHT22;21401;50.878;8.050;2022-07-31T00:09:23;18.20;99.90
35277;DHT22;21401;50.878;8.050;2022-07-31T00:11:48;18.10;99.90
35277;DHT22;21401;50.878;8.050;2022-07-31T00:14:14;18.10;99.90
35277;DHT22;21401;50.878;8.050;2022-07-31T00:16:42;18.10;99.90
35277;DHT22;21401;50.878;8.050;2022-07-31T00:19:08;18.00;99.90
35277;DHT22;21401;50.878;8.050;2022-07-31T00:21:33;18.00;99.90
35277;DHT22;21401;50.878;8.050;2022-07-31T00:23:59;18.00;99.90
35277;DHT22;21401;50.878;8.050;2022-07-31T00:26:24;18.00;99.90
35277;DHT22;21401;50.878;8.050;2022-07-31T00:28:50;17.80;99.90
35277;DHT22;21401;50.878;8.050;2022-07-31T00:31:15;17.90;99.90
35277;DHT22;21401;50.878;8.050;2022-07-31T00:33:42;17.80;99.90
35277;DHT22;21401;50.878;8.050;2022-07-31T00:36:11;17.90;99.90
35277;DHT22;21401;50.878;8.050;2022-07-31T00:38:38;17.90;99.90
35277;DHT22;21401;50.878;8.050;2022-07-31T00:41:04;17.80;99.90
35277;DHT22;21401;50.878;8.050;2022-07-31T00:43:30;17.60;99.90
35277;DHT22;21401;50.878;8.050;2022-07-31T00:45:55;17.50;99.90
35277;DHT22;21401;50.878;8.050;2022-07-31T00:48:22;17.50;99.90
35277;DHT22;21401;50.878;8.050;2022-07-31T00:50:47;17.50;99.90
35277;DHT22;21401;50.878;8.050;2022-07-31T00:53:13;17.50;99.90
35277;DHT22;21401;50.878;8.050;2022-07-31T00:55:39;17.50;99.90
35277;DHT22;21401;50.878;8.050;2022-07-31T00:58:04;17.60;99.90
35277;DHT22;21401;50.878;8.050;2022-07-31T01:00:32;17.60;99.90
35277;DHT22;21401;50.878;8.050;2022-07-31T01:02:58;17.40;99.90
35277;DHT22;21401;50.878;8.050;2022-07-31T01:05:26;17.30;99.90
35277;DHT22;21401;50.878;8.050;2022-07-31T01:07:54;17.30;99.90
35277;DHT22;21401;50.878;8.050;2022-07-31T01:10:37;17.50;99.90
35277;DHT22;21401;50.878;8.050;2022-07-31T01:13:12;17.60;99.90
35277;DHT22;21401;50.878;8.050;2022-07-31T01:15:41;17.70;99.90
35277;DHT22;21401;50.878;8.050;2022-07-31T01:18:07;17.70;99.90
35277;DHT22;21401;50.878;8.050;2022-07-31T01:20:34;17.70;99.90
35277;DHT22;21401;50.878;8.050;2022-07-31T01:23:40;17.60;99.90
35277;DHT22;21401;50.878;8.050;2022-07-31T01:28:57;17.10;99.90
35277;DHT22;21401;50.878;8.050;2022-07-31T01:31:45;17.10;99.90
35277;DHT22;21401;50.878;8.050;2022-07-31T01:34:21;17.30;99.90
35277;DHT22;21401;50.878;8.050;2022-07-31T01:37:05;17.10;99.90
35277;DHT22;21401;50.878;8.050;2022-07-31T01:39:34;17.00;99.90
35277;DHT22;21401;50.878;8.050;2022-07-31T01:42:03;16.90;99.90
35277;DHT22;21401;50.878;8.050;2022-07-31T01:44:39;16.90;99.90
35277;DHT22;21401;50.878;8.050;2022-07-31T01:47:06;17.10;99.90
35277;DHT22;21401;50.878;8.050;2022-07-31T01:49:33;17.10;99.90
35277;DHT22;21401;50.878;8.050;2022-07-31T01:51:59;17.00;99.90
35277;DHT22;21401;50.878;8.050;2022-07-31T01:54:28;17.00;99.90
35277;DHT22;21401;50.878;8.050;2022-07-31T01:56:55;16.90;99.90
35277;DHT22;21401;50.878;8.050;2022-07-31T01:59:25;16.80;99.90
35277;DHT22;21401;50.878;8.050;2022-07-31T02:01:52;16.70;99.90
35277;DHT22;21401;50.878;8.050;2022-07-31T02:04:19;16.60;99.90
35277;DHT22;21401;50.878;8.050;2022-07-31T02:06:49;16.70;99.90
35277;DHT22;21401;50.878;8.050;2022-07-31T02:09:19;16.70;99.90
35277;DHT22;21401;50.878;8.050;2022-07-31T02:11:46;16.60;99.90
35277;DHT22;21401;50.878;8.050;2022-07-31T02:14:16;16.70;99.90
35277;DHT22;21401;50.878;8.050;2022-07-31T02:16:46;16.50;99.90
35277;DHT22;21401;50.878;8.050;2022-07-31T02:19:13;16.50;99.90
35277;DHT22;21401;50.878;8.050;2022-07-31T02:21:40;16.70;99.90
35277;DHT22;21401;50.878;8.050;2022-07-31T02:24:06;16.80;99.90
35277;DHT22;21401;50.878;8.050;2022-07-31T02:26:32;16.70;99.90
35277;DHT22;21401;50.878;8.050;2022-07-31T02:28:59;16.50;99.90
35277;DHT22;21401;50.878;8.050;2022-07-31T02:31:30;16.40;99.90
35277;DHT22;21401;50.878;8.050;2022-07-31T02:33:57;16.50;99.90
35277;DHT22;21401;50.878;8.050;2022-07-31T02:36:23;16.60;99.90
35277;DHT22;21401;50.878;8.050;2022-07-31T02:38:52;16.40;99.90
35277;DHT22;21401;50.878;8.050;2022-07-31T02:41:21;16.30;99.90
35277;DHT22;21401;50.878;8.050;2022-07-31T02:43:50;16.40;99.90
35277;DHT22;21401;50.878;8.050;2022-07-31T02:46:16;16.30;99.90
35277;DHT22;21401;50.878;8.050;2022-07-31T02:48:43;16.20;99.90
35277;DHT22;21401;50.878;8.050;2022-07-31T02:51:12;16.00;99.90
35277;DHT22;21401;50.878;8.050;2022-07-31T02:53:37;16.00;99.90
35277;DHT22;21401;50.878;8.050;2022-07-31T02:56:07;16.10;99.90
35277;DHT22;21401;50.878;8.050;2022-07-31T02:58:34;16.20;99.90
35277;DHT22;21401;50.878;8.050;2022-07-31T03:01:04;16.30;99.90
35277;DHT22;21401;50.878;8.050;2022-07-31T03:03:30;16.30;99.90
35277;DHT22;21401;50.878;8.050;2022-07-31T03:05:56;16.30;99.90
35277;DHT22;21401;50.878;8.050;2022-07-31T03:08:22;16.10;99.90
35277;DHT22;21401;50.878;8.050;2022-07-31T03:10:48;16.00;99.90
35277;DHT22;21401;50.878;8.050;2022-07-31T03:13:14;16.00;99.90
35277;DHT22;21401;50.878;8.050;2022-07-31T03:15:42;16.00;99.90
35277;DHT22;21401;50.878;8.050;2022-07-31T03:18:08;16.10;99.90
35277;DHT22;21401;50.878;8.050;2022-07-31T03:20:42;15.90;99.90
35277;DHT22;21401;50.878;8.050;2022-07-31T03:23:09;15.90;99.90
35277;DHT22;21401;50.878;8.050;2022-07-31T03:25:35;15.90;99.90
35277;DHT22;21401;50.878;8.050;2022-07-31T03:28:01;16.00;99.90
35277;DHT22;21401;50.878;8.050;2022-07-31T03:30:27;16.00;99.90
35277;DHT22;21401;50.878;8.050;2022-07-31T03:32:56;15.90;99.90
35277;DHT22;21401;50.878;8.050;2022-07-31T03:35:23;15.80;99.90
35277;DHT22;21401;50.878;8.050;2022-07-31T03:37:48;15.60;99.90
35277;DHT22;21401;50.878;8.050;2022-07-31T03:40:14;15.60;99.90
35277;DHT22;21401;50.878;8.050;2022-07-31T03:42:40;15.60;99.90
35277;DHT22;21401;50.878;8.050;2022-07-31T03:45:09;15.60;99.90
35277;DHT22;21401;50.878;8.050;2022-07-31T03:47:35;15.50;99.90
35277;DHT22;21401;50.878;8.050;2022-07-31T03:50:01;15.40;99.90
35277;DHT22;21401;50.878;8.050;2022-07-31T03:52:27;15.40;99.90
35277;DHT22;21401;50.878;8.050;2022-07-31T03:54:55;15.50;99.90
35277;DHT22;21401;50.878;8.050;2022-07-31T03:57:23;15.70;99.90
35277;DHT22;21401;50.878;8.050;2022-07-31T03:59:51;15.60;99.90
35277;DHT22;21401;50.878;8.050;2022-07-31T04:02:18;15.50;99.90
35277;DHT22;21401;50.878;8.050;2022-07-31T04:04:44;15.50;99.90
35277;DHT22;21401;50.878;8.050;2022-07-31T04:07:10;15.60;99.90
35277;DHT22;21401;50.878;8.050;2022-07-31T04:09:38;15.80;99.90
35277;DHT22;21401;50.878;8.050;2022-07-31T04:12:06;15.60;99.90
35277;DHT22;21401;50.878;8.050;2022-07-31T04:14:32;15.80;99.90
35277;DHT22;21401;50.878;8.050;2022-07-31T04:17:00;15.80;99.90
35277;DHT22;21401;50.878;8.050;2022-07-31T04:19:25;15.90;99.90
35277;DHT22;21401;50.878;8.050;2022-07-31T04:21:53;15.90;99.90
35277;DHT22;21401;50.878;8.050;2022-07-31T04:24:19;15.80;99.90
35277;DHT22;21401;50.878;8.050;2022-07-31T04:26:47;15.80;99.90
35277;DHT22;21401;50.878;8.050;2022-07-31T04:29:13;15.80;99.90
35277;DHT22;21401;50.878;8.050;2022-07-31T04:31:39;15.80;99.90
35277;DHT22;21401;50.878;8.050;2022-07-31T04:34:07;15.80;99.90
35277;DHT22;21401;50.878;8.050;2022-07-31T04:36:33;15.80;99.90
35277;DHT22;21401;50.878;8.050;2022-07-31T04:38:59;15.90;99.90
35277;DHT22;21401;50.878;8.050;2022-07-31T04:41:27;16.00;99.90
35277;DHT22;21401;50.878;8.050;2022-07-31T04:43:53;16.00;99.90
35277;DHT22;21401;50.878;8.050;2022-07-31T04:46:18;16.10;99.90
35277;DHT22;21401;50.878;8.050;2022-07-31T04:48:51;16.30;99.90
35277;DHT22;21401;50.878;8.050;2022-07-31T04:51:21;16.40;99.90
35277;DHT22;21401;50.878;8.050;2022-07-31T04:53:47;16.50;99.90
35277;DHT22;21401;50.878;8.050;2022-07-31T04:56:15;16.50;99.90
35277;DHT22;21401;50.878;8.050;2022-07-31T04:59:01;16.50;99.90
35277;DHT22;21401;50.878;8.050;2022-07-31T05:01:27;16.50;99.90
35277;DHT22;21401;50.878;8.050;2022-07-31T05:03:55;16.60;99.90
35277;DHT22;21401;50.878;8.050;2022-07-31T05:06:21;16.60;99.90
35277;DHT22;21401;50.878;8.050;2022-07-31T05:08:46;16.60;99.90
35277;DHT22;21401;50.878;8.050;2022-07-31T05:11:12;16.70;99.90
35277;DHT22;21401;50.878;8.050;2022-07-31T05:13:53;16.80;99.90
35277;DHT22;21401;50.878;8.050;2022-07-31T05:16:19;16.80;99.90
35277;DHT22;21401;50.878;8.050;2022-07-31T05:18:48;16.80;99.90
35277;DHT22;21401;50.878;8.050;2022-07-31T05:21:14;16.80;99.90
35277;DHT22;21401;50.878;8.050;2022-07-31T05:23:41;16.80;99.90
35277;DHT22;21401;50.878;8.050;2022-07-31T05:26:08;16.80;99.90
35277;DHT22;21401;50.878;8.050;2022-07-31T05:28:34;16.70;99.90
35277;DHT22;21401;50.878;8.050;2022-07-31T05:31:00;16.80;99.90
35277;DHT22;21401;50.878;8.050;2022-07-31T05:33:26;16.90;99.90
35277;DHT22;21401;50.878;8.050;2022-07-31T05:35:53;17.00;99.90
35277;DHT22;21401;50.878;8.050;2022-07-31T05:38:18;17.00;99.90
35277;DHT22;21401;50.878;8.050;2022-07-31T05:40:44;17.00;99.90
35277;DHT22;21401;50.878;8.050;2022-07-31T05:43:10;17.00;99.90
35277;DHT22;21401;50.878;8.050;2022-07-31T05:45:35;17.10;99.90
35277;DHT22;21401;50.878;8.050;2022-07-31T05:48:01;17.10;99.90
35277;DHT22;21401;50.878;8.050;2022-07-31T05:50:27;17.10;99.90
35277;DHT22;21401;50.878;8.050;2022-07-31T05:52:57;17.10;99.90
35277;DHT22;21401;50.878;8.050;2022-07-31T05:55:25;17.20;99.90
35277;DHT22;21401;50.878;8.050;2022-07-31T05:57:51;17.30;99.90
35277;DHT22;21401;50.878;8.050;2022-07-31T06:00:17;17.20;99.90
35277;DHT22;21401;50.878;8.050;2022-07-31T06:02:43;17.30;99.90
35277;DHT22;21401;50.878;8.050;2022-07-31T06:05:09;17.30;99.90
35277;DHT22;21401;50.878;8.050;2022-07-31T06:07:35;17.40;99.90
35277;DHT22;21401;50.878;8.050;2022-07-31T06:10:02;17.30;99.90
35277;DHT22;21401;50.878;8.050;2022-07-31T06:12:27;17.40;99.90
35277;DHT22;21401;50.878;8.050;2022-07-31T06:14:53;17.20;99.90
35277;DHT22;21401;50.878;8.050;2022-07-31T06:17:19;17.40;99.90
35277;DHT22;21401;50.878;8.050;2022-07-31T06:19:47;17.50;99.90
35277;DHT22;21401;50.878;8.050;2022-07-31T06:22:12;17.60;99.90
35277;DHT22;21401;50.878;8.050;2022-07-31T06:24:38;17.60;99.90
35277;DHT22;21401;50.878;8.050;2022-07-31T06:27:04;17.70;99.90
35277;DHT22;21401;50.878;8.050;2022-07-31T06:29:30;17.80;99.90
35277;DHT22;21401;50.878;8.050;2022-07-31T06:31:59;18.00;99.90
35277;DHT22;21401;50.878;8.050;2022-07-31T06:34:24;18.10;99.90
35277;DHT22;21401;50.878;8.050;2022-07-31T06:36:54;18.30;99.90
35277;DHT22;21401;50.878;8.050;2022-07-31T06:39:24;18.40;99.90
35277;DHT22;21401;50.878;8.050;2022-07-31T06:41:52;18.50;99.90
35277;DHT22;21401;50.878;8.050;2022-07-31T06:44:18;18.50;99.90
35277;DHT22;21401;50.878;8.050;2022-07-31T06:46:49;18.50;99.90
35277;DHT22;21401;50.878;8.050;2022-07-31T06:49:16;18.30;99.90
35277;DHT22;21401;50.878;8.050;2022-07-31T06:51:43;18.30;99.90
35277;DHT22;21401;50.878;8.050;2022-07-31T06:54:11;18.30;99.90
35277;DHT22;21401;50.878;8.050;2022-07-31T06:56:37;18.40;99.90
35277;DHT22;21401;50.878;8.050;2022-07-31T06:59:06;18.40;99.90
35277;DHT22;21401;50.878;8.050;2022-07-31T07:01:32;18.50;99.90
35277;DHT22;21401;50.878;8.050;2022-07-31T07:03:58;18.50;99.90
35277;DHT22;21401;50.878;8.050;2022-07-31T07:06:26;18.60;99.90
35277;DHT22;21401;50.878;8.050;2022-07-31T07:08:54;18.70;99.90
35277;DHT22;21401;50.878;8.050;2022-07-31T07:11:20;18.80;99.90
35277;DHT22;21401;50.878;8.050;2022-07-31T07:13:48;18.80;99.90
35277;DHT22;21401;50.878;8.050;2022-07-31T07:16:18;18.90;99.90
35277;DHT22;21401;50.878;8.050;2022-07-31T07:18:46;19.00;99.90
35277;DHT22;21401;50.878;8.050;2022-07-31T07:21:12;19.00;99.90
35277;DHT22;21401;50.878;8.050;2022-07-31T07:23:40;19.00;99.90
35277;DHT22;21401;50.878;8.050;2022-07-31T07:26:06;19.30;99.90
35277;DHT22;21401;50.878;8.050;2022-07-31T07:28:32;19.50;99.90
35277;DHT22;21401;50.878;8.050;2022-07-31T07:30:58;19.50;99.90
35277;DHT22;21401;50.878;8.050;2022-07-31T07:33:24;19.50;99.90
35277;DHT22;21401;50.878;8.050;2022-07-31T07:35:49;19.70;99.90
35277;DHT22;21401;50.878;8.050;2022-07-31T07:38:20;19.90;99.90
35277;DHT22;21401;50.878;8.050;2022-07-31T07:40:45;19.90;99.90
35277;DHT22;21401;50.878;8.050;2022-07-31T07:43:11;20.00;99.90
35277;DHT22;21401;50.878;8.050;2022-07-31T07:45:37;20.10;99.90
35277;DHT22;21401;50.878;8.050;2022-07-31T07:48:04;20.20;99.90
35277;DHT22;21401;50.878;8.050;2022-07-31T07:50:30;20.20;99.90
35277;DHT22;21401;50.878;8.050;2022-07-31T07:52:56;20.30;99.90
35277;DHT22;21401;50.878;8.050;2022-07-31T07:55:22;20.30;99.90
35277;DHT22;21401;50.878;8.050;2022-07-31T07:57:50;20.50;99.90
35277;DHT22;21401;50.878;8.050;2022-07-31T08:00:15;20.60;99.90
35277;DHT22;21401;50.878;8.050;2022-07-31T08:02:41;20.70;99.90
35277;DHT22;21401;50.878;8.050;2022-07-31T08:05:11;20.70;99.90
35277;DHT22;21401;50.878;8.050;2022-07-31T08:07:38;21.00;99.90
35277;DHT22;21401;50.878;8.050;2022-07-31T08:10:05;21.20;99.90
35277;DHT22;21401;50.878;8.050;2022-07-31T08:12:31;21.30;99.90
35277;DHT22;21401;50.878;8.050;2022-07-31T08:14:57;21.30;99.90
35277;DHT22;21401;50.878;8.050;2022-07-31T08:17:23;21.40;99.90
35277;DHT22;21401;50.878;8.050;2022-07-31T08:19:49;21.40;99.90
35277;DHT22;21401;50.878;8.050;2022-07-31T08:22:15;21.40;99.90
35277;DHT22;21401;50.878;8.050;2022-07-31T08:24:41;21.60;99.90
35277;DHT22;21401;50.878;8.050;2022-07-31T08:27:07;21.70;99.90
35277;DHT22;21401;50.878;8.050;2022-07-31T08:29:53;21.80;99.90
35277;DHT22;21401;50.878;8.050;2022-07-31T08:32:19;22.10;99.90
35277;DHT22;21401;50.878;8.050;2022-07-31T08:34:46;22.10;99.90
35277;DHT22;21401;50.878;8.050;2022-07-31T08:37:12;22.10;99.90
35277;DHT22;21401;50.878;8.050;2022-07-31T08:39:38;22.20;99.90
35277;DHT22;21401;50.878;8.050;2022-07-31T08:42:08;22.40;99.90
35277;DHT22;21401;50.878;8.050;2022-07-31T08:44:35;22.10;99.90
35277;DHT22;21401;50.878;8.050;2022-07-31T08:47:02;22.00;99.90
35277;DHT22;21401;50.878;8.050;2022-07-31T08:49:31;22.20;99.90
35277;DHT22;21401;50.878;8.050;2022-07-31T08:52:00;22.40;99.90
35277;DHT22;21401;50.878;8.050;2022-07-31T08:54:26;22.40;99.90
35277;DHT22;21401;50.878;8.050;2022-07-31T08:56:53;22.40;99.90
35277;DHT22;21401;50.878;8.050;2022-07-31T08:59:18;22.40;99.70
35277;DHT22;21401;50.878;8.050;2022-07-31T09:01:44;22.40;99.90
35277;DHT22;21401;50.878;8.050;2022-07-31T09:04:10;22.60;99.90
35277;DHT22;21401;50.878;8.050;2022-07-31T09:06:36;22.50;99.50
35277;DHT22;21401;50.878;8.050;2022-07-31T09:09:03;22.60;99.50
35277;DHT22;21401;50.878;8.050;2022-07-31T09:11:29;22.70;99.90
35277;DHT22;21401;50.878;8.050;2022-07-31T09:14:00;22.80;99.90
35277;DHT22;21401;50.878;8.050;2022-07-31T09:16:27;22.90;99.90
35277;DHT22;21401;50.878;8.050;2022-07-31T09:18:56;22.80;99.20
35277;DHT22;21401;50.878;8.050;2022-07-31T09:21:22;22.70;99.40
35277;DHT22;21401;50.878;8.050;2022-07-31T09:23:49;22.70;99.50
35277;DHT22;21401;50.878;8.050;2022-07-31T09:26:14;22.70;99.30
35277;DHT22;21401;50.878;8.050;2022-07-31T09:28:47;22.90;99.10
35277;DHT22;21401;50.878;8.050;2022-07-31T09:31:19;22.80;98.70
35277;DHT22;21401;50.878;8.050;2022-07-31T09:33:45;22.90;99.20
35277;DHT22;21401;50.878;8.050;2022-07-31T09:36:12;22.90;99.10
35277;DHT22;21401;50.878;8.050;2022-07-31T09:38:41;22.90;98.90
35277;DHT22;21401;50.878;8.050;2022-07-31T09:41:12;23.00;98.50
35277;DHT22;21401;50.878;8.050;2022-07-31T09:43:40;23.00;98.50
35277;DHT22;21401;50.878;8.050;2022-07-31T09:46:07;22.90;98.60
35277;DHT22;21401;50.878;8.050;2022-07-31T09:48:34;22.80;98.30
35277;DHT22;21401;50.878;8.050;2022-07-31T09:51:02;22.80;98.60
35277;DHT22;21401;50.878;8.050;2022-07-31T09:53:45;22.90;98.80
35277;DHT22;21401;50.878;8.050;2022-07-31T09:56:11;23.10;98.70
35277;DHT22;21401;50.878;8.050;2022-07-31T09:58:38;23.30;98.40
35277;DHT22;21401;50.878;8.050;2022-07-31T10:01:10;23.60;98.10
35277;DHT22;21401;50.878;8.050;2022-07-31T10:03:48;23.40;97.70
35277;DHT22;21401;50.878;8.050;2022-07-31T10:06:16;23.50;98.00
35277;DHT22;21401;50.878;8.050;2022-07-31T10:08:44;23.60;97.60
35277;DHT22;21401;50.878;8.050;2022-07-31T10:11:14;23.70;97.60
35277;DHT22;21401;50.878;8.050;2022-07-31T10:13:48;24.00;97.60
35277;DHT22;21401;50.878;8.050;2022-07-31T10:16:18;24.00;97.60
35277;DHT22;21401;50.878;8.050;2022-07-31T10:18:55;23.90;96.80
35277;DHT22;21401;50.878;8.050;2022-07-31T10:21:28;23.90;97.00
35277;DHT22;21401;50.878;8.050;2022-07-31T10:23:56;24.00;97.20
35277;DHT22;21401;50.878;8.050;2022-07-31T10:26:23;24.30;96.80
35277;DHT22;21401;50.878;8.050;2022-07-31T10:28:48;24.30;97.00
35277;DHT22;21401;50.878;8.050;2022-07-31T10:31:14;24.30;96.40
35277;DHT22;21401;50.878;8.050;2022-07-31T10:33:42;24.30;96.50
35277;DHT22;21401;50.878;8.050;2022-07-31T10:36:22;24.20;96.40
35277;DHT22;21401;50.878;8.050;2022-07-31T10:39:02;24.60;95.70
35277;DHT22;21401;50.878;8.050;2022-07-31T10:44:17;24.30;96.80
35277;DHT22;21401;50.878;8.050;2022-07-31T10:46:44;24.60;96.10
35277;DHT22;21401;50.878;8.050;2022-07-31T10:49:09;24.70;96.20
35277;DHT22;21401;50.878;8.050;2022-07-31T10:51:45;24.70;95.80
35277;DHT22;21401;50.878;8.050;2022-07-31T10:54:14;24.90;95.60
35277;DHT22;21401;50.878;8.050;2022-07-31T10:56:41;25.00;95.60
35277;DHT22;21401;50.878;8.050;2022-07-31T10:59:08;24.90;95.50
35277;DHT22;21401;50.878;8.050;2022-07-31T11:01:50;25.00;95.60
35277;DHT22;21401;50.878;8.050;2022-07-31T11:04:27;25.00;96.00
35277;DHT22;21401;50.878;8.050;2022-07-31T11:06:53;24.80;95.80
35277;DHT22;21401;50.878;8.050;2022-07-31T11:09:23;24.60;96.10
35277;DHT22;21401;50.878;8.050;2022-07-31T11:11:49;24.60;96.40
35277;DHT22;21401;50.878;8.050;2022-07-31T11:14:15;24.50;96.10
35277;DHT22;21401;50.878;8.050;2022-07-31T11:16:53;24.80;96.00
35277;DHT22;21401;50.878;8.050;2022-07-31T11:19:20;24.60;95.90
35277;DHT22;21401;50.878;8.050;2022-07-31T11:21:46;24.70;95.70
35277;DHT22;21401;50.878;8.050;2022-07-31T11:24:19;24.80;95.90
35277;DHT22;21401;50.878;8.050;2022-07-31T11:34:54;25.20;95.30
35277;DHT22;21401;50.878;8.050;2022-07-31T11:37:22;25.30;94.90
35277;DHT22;21401;50.878;8.050;2022-07-31T11:39:53;25.60;95.30
35277;DHT22;21401;50.878;8.050;2022-07-31T11:42:20;25.60;94.70
35277;DHT22;21401;50.878;8.050;2022-07-31T11:44:46;25.50;94.80
35277;DHT22;21401;50.878;8.050;2022-07-31T11:47:12;25.60;94.70
35277;DHT22;21401;50.878;8.050;2022-07-31T11:49:38;25.80;94.70
35277;DHT22;21401;50.878;8.050;2022-07-31T11:52:05;25.80;94.10
35277;DHT22;21401;50.878;8.050;2022-07-31T11:54:37;26.20;94.50
35277;DHT22;21401;50.878;8.050;2022-07-31T11:57:05;26.50;93.90
35277;DHT22;21401;50.878;8.050;2022-07-31T11:59:33;26.30;93.80
35277;DHT22;21401;50.878;8.050;2022-07-31T12:02:06;26.40;94.00
35277;DHT22;21401;50.878;8.050;2022-07-31T12:04:33;26.40;93.60
35277;DHT22;21401;50.878;8.050;2022-07-31T12:07:01;26.30;93.60
35277;DHT22;21401;50.878;8.050;2022-07-31T12:09:26;25.80;93.30
35277;DHT22;21401;50.878;8.050;2022-07-31T12:11:53;25.70;93.70
35277;DHT22;21401;50.878;8.050;2022-07-31T12:14:38;25.70;94.10
35277;DHT22;21401;50.878;8.050;2022-07-31T12:17:06;25.90;94.00
35277;DHT22;21401;50.878;8.050;2022-07-31T12:19:35;26.00;94.00
35277;DHT22;21401;50.878;8.050;2022-07-31T12:22:18;25.80;93.70
35277;DHT22;21401;50.878;8.050;2022-07-31T12:24:45;25.90;94.40
35277;DHT22;21401;50.878;8.050;2022-07-31T12:27:16;25.60;94.20
35277;DHT22;21401;50.878;8.050;2022-07-31T12:29:44;25.70;94.40
35277;DHT22;21401;50.878;8.050;2022-07-31T12:32:23;25.70;94.70
35277;DHT22;21401;50.878;8.050;2022-07-31T12:35:00;25.80;94.80
35277;DHT22;21401;50.878;8.050;2022-07-31T12:37:26;25.90;94.00
35277;DHT22;21401;50.878;8.050;2022-07-31T12:39:54;26.40;94.30
35277;DHT22;21401;50.878;8.050;2022-07-31T12:42:22;26.50;93.90
35277;DHT22;21401;50.878;8.050;2022-07-31T12:44:49;26.40;93.70
35277;DHT22;21401;50.878;8.050;2022-07-31T12:47:29;26.50;93.80
35277;DHT22;21401;50.878;8.050;2022-07-31T12:49:56;26.20;93.80
35277;DHT22;21401;50.878;8.050;2022-07-31T12:52:22;26.50;93.80
35277;DHT22;21401;50.878;8.050;2022-07-31T12:54:52;26.40;93.40
35277;DHT22;21401;50.878;8.050;2022-07-31T12:57:18;25.80;93.50
35277;DHT22;21401;50.878;8.050;2022-07-31T12:59:45;25.80;94.50
35277;DHT22;21401;50.878;8.050;2022-07-31T13:02:11;25.70;94.40
35277;DHT22;21401;50.878;8.050;2022-07-31T13:04:37;25.70;94.60
35277;DHT22;21401;50.878;8.050;2022-07-31T13:07:03;25.80;94.50
35277;DHT22;21401;50.878;8.050;2022-07-31T13:09:30;26.00;94.50
35277;DHT22;21401;50.878;8.050;2022-07-31T13:11:59;26.10;94.30
35277;DHT22;21401;50.878;8.050;2022-07-31T13:14:27;26.10;93.60
35277;DHT22;21401;50.878;8.050;2022-07-31T13:16:53;26.10;93.70
35277;DHT22;21401;50.878;8.050;2022-07-31T13:19:20;26.10;93.90
35277;DHT22;21401;50.878;8.050;2022-07-31T13:21:45;26.00;93.90
35277;DHT22;21401;50.878;8.050;2022-07-31T13:24:11;26.40;94.10
35277;DHT22;21401;50.878;8.050;2022-07-31T13:26:41;26.80;93.50
35277;DHT22;21401;50.878;8.050;2022-07-31T13:29:09;26.50;93.40
35277;DHT22;21401;50.878;8.050;2022-07-31T13:31:37;26.40;94.00
35277;DHT22;21401;50.878;8.050;2022-07-31T13:34:03;26.10;94.30
35277;DHT22;21401;50.878;8.050;2022-07-31T13:36:31;26.50;94.30
35277;DHT22;21401;50.878;8.050;2022-07-31T13:38:57;26.40;94.50
35277;DHT22;21401;50.878;8.050;2022-07-31T13:41:22;26.40;93.90
35277;DHT22;21401;50.878;8.050;2022-07-31T13:43:52;26.50;93.70
35277;DHT22;21401;50.878;8.050;2022-07-31T13:46:19;26.70;93.90
35277;DHT22;21401;50.878;8.050;2022-07-31T13:48:45;26.60;93.60
35277;DHT22;21401;50.878;8.050;2022-07-31T13:51:11;26.70;93.50
35277;DHT22;21401;50.878;8.050;2022-07-31T13:53:37;26.40;93.70
35277;DHT22;21401;50.878;8.050;2022-07-31T13:56:03;27.10;93.70
35277;DHT22;21401;50.878;8.050;2022-07-31T13:58:29;27.40;92.80
35277;DHT22;21401;50.878;8.050;2022-07-31T14:00:55;27.50;92.80
35277;DHT22;21401;50.878;8.050;2022-07-31T14:03:21;27.20;92.70
35277;DHT22;21401;50.878;8.050;2022-07-31T14:05:47;27.30;92.00
35277;DHT22;21401;50.878;8.050;2022-07-31T14:08:13;26.90;91.50
35277;DHT22;21401;50.878;8.050;2022-07-31T14:10:41;26.90;92.50
35277;DHT22;21401;50.878;8.050;2022-07-31T14:13:07;26.90;92.20
35277;DHT22;21401;50.878;8.050;2022-07-31T14:15:34;27.00;92.20
35277;DHT22;21401;50.878;8.050;2022-07-31T14:18:02;27.20;91.60
35277;DHT22;21401;50.878;8.050;2022-07-31T14:20:28;27.30;91.20
35277;DHT22;21401;50.878;8.050;2022-07-31T14:22:57;27.10;91.40
35277;DHT22;21401;50.878;8.050;2022-07-31T14:25:22;26.90;91.50
35277;DHT22;21401;50.878;8.050;2022-07-31T14:27:48;26.90;91.70
35277;DHT22;21401;50.878;8.050;2022-07-31T14:30:17;26.90;91.80
35277;DHT22;21401;50.878;8.050;2022-07-31T14:32:42;26.80;91.90
35277;DHT22;21401;50.878;8.050;2022-07-31T14:35:08;26.70;92.20
35277;DHT22;21401;50.878;8.050;2022-07-31T14:37:36;26.80;92.20
35277;DHT22;21401;50.878;8.050;2022-07-31T14:40:03;26.60;92.20
35277;DHT22;21401;50.878;8.050;2022-07-31T14:42:29;26.60;92.50
35277;DHT22;21401;50.878;8.050;2022-07-31T14:44:56;26.40;92.60
35277;DHT22;21401;50.878;8.050;2022-07-31T14:47:25;26.60;92.60
35277;DHT22;21401;50.878;8.050;2022-07-31T14:49:51;26.90;92.70
35277;DHT22;21401;50.878;8.050;2022-07-31T14:52:16;26.70;92.30
35277;DHT22;21401;50.878;8.050;2022-07-31T14:54:44;26.40;92.80
35277;DHT22;21401;50.878;8.050;2022-07-31T14:57:10;26.50;92.90
35277;DHT22;21401;50.878;8.050;2022-07-31T14:59:35;26.70;93.30
35277;DHT22;21401;50.878;8.050;2022-07-31T15:02:01;26.80;93.00
35277;DHT22;21401;50.878;8.050;2022-07-31T15:04:27;27.00;92.70
35277;DHT22;21401;50.878;8.050;2022-07-31T15:06:55;26.70;92.50
35277;DHT22;21401;50.878;8.050;2022-07-31T15:09:23;26.60;92.90
35277;DHT22;21401;50.878;8.050;2022-07-31T15:11:48;26.50;93.30
35277;DHT22;21401;50.878;8.050;2022-07-31T15:14:15;26.80;93.40
35277;DHT22;21401;50.878;8.050;2022-07-31T15:16:44;26.70;93.00
35277;DHT22;21401;50.878;8.050;2022-07-31T15:19:09;26.60;93.00
35277;DHT22;21401;50.878;8.050;2022-07-31T15:21:38;26.60;93.20
35277;DHT22;21401;50.878;8.050;2022-07-31T15:24:04;26.60;93.20
35277;DHT22;21401;50.878;8.050;2022-07-31T15:26:32;26.50;93.10
35277;DHT22;21401;50.878;8.050;2022-07-31T15:28:58;26.50;93.10
35277;DHT22;21401;50.878;8.050;2022-07-31T15:31:23;26.40;93.20
35277;DHT22;21401;50.878;8.050;2022-07-31T15:33:52;26.40;93.70
35277;DHT22;21401;50.878;8.050;2022-07-31T15:36:22;26.70;93.50
35277;DHT22;21401;50.878;8.050;2022-07-31T15:38:55;26.50;93.70
35277;DHT22;21401;50.878;8.050;2022-07-31T15:41:20;26.60;93.70
35277;DHT22;21401;50.878;8.050;2022-07-31T15:43:50;26.50;93.50
35277;DHT22;21401;50.878;8.050;2022-07-31T15:46:18;26.40;94.00
35277;DHT22;21401;50.878;8.050;2022-07-31T15:48:44;26.40;93.80